createdAt,value
2019-06-07T00:00:59.916Z,8.77
2019-06-07T00:06:01.819Z,8.70
2019-06-07T00:11:03.999Z,8.20
2019-06-07T00:16:05.585Z,7.70
2019-06-07T00:21:08.950Z,7.33
2019-06-07T00:26:10.883Z,6.93
2019-06-07T00:31:14.938Z,6.97
2019-06-07T00:36:18.203Z,6.83
2019-06-07T00:41:22.239Z,6.43
2019-06-07T00:46:25.314Z,6.10
2019-06-07T00:51:26.756Z,6.43
2019-06-07T00:56:28.565Z,6.13
2019-06-07T01:01:30.337Z,6.30
2019-06-07T01:06:31.983Z,6.23
2019-06-07T01:11:33.549Z,6.47
2019-06-07T01:16:55.273Z,6.20
2019-06-07T01:21:38.723Z,5.60
2019-06-07T01:26:40.216Z,5.80
2019-06-07T01:31:41.744Z,5.40
2019-06-07T01:36:43.230Z,5.50
2019-06-07T01:41:44.793Z,5.60
2019-06-07T01:46:46.291Z,5.63
2019-06-07T01:51:47.783Z,4.33
2019-06-07T01:56:49.267Z,4.63
2019-06-07T02:01:50.861Z,4.00
2019-06-07T02:06:52.526Z,3.20
2019-06-07T02:11:54.017Z,3.10
2019-06-07T02:16:55.498Z,2.80
2019-06-07T02:21:56.974Z,3.00
2019-06-07T02:26:58.850Z,2.30
2019-06-07T02:32:00.631Z,2.40
2019-06-07T02:37:02.136Z,2.40
2019-06-07T02:42:04.582Z,2.30
2019-06-07T02:47:06.286Z,2.10
2019-06-07T02:52:07.761Z,2.30
2019-06-07T02:57:09.337Z,2.03
2019-06-07T03:02:11.333Z,2.37
2019-06-07T03:07:16.268Z,2.20
2019-06-07T03:12:20.447Z,2.10
2019-06-07T03:17:44.544Z,2.20
2019-06-07T03:22:49.527Z,2.30
2019-06-07T03:27:51.206Z,2.13
2019-06-07T03:32:53.003Z,2.27
2019-06-07T03:37:54.641Z,2.00
2019-06-07T03:42:56.482Z,2.53
2019-06-07T03:47:58.256Z,2.40
2019-06-07T03:52:59.754Z,2.50
2019-06-07T03:58:30.873Z,2.47
2019-06-07T04:03:05.115Z,2.40
2019-06-07T04:08:06.866Z,2.40
2019-06-07T04:13:08.343Z,2.53
2019-06-07T04:18:10.034Z,2.40
2019-06-07T04:23:27.311Z,2.63
2019-06-07T04:28:14.911Z,2.27
2019-06-07T04:33:16.393Z,2.30
2019-06-07T04:38:18.252Z,2.20
2019-06-07T04:43:19.736Z,1.97
2019-06-07T04:48:22.570Z,2.17
2019-06-07T04:53:24.161Z,1.93
2019-06-07T04:58:25.816Z,2.13
2019-06-07T05:03:27.320Z,2.00
2019-06-07T05:08:31.499Z,1.90
2019-06-07T05:13:35.837Z,1.90
2019-06-07T05:18:39.623Z,1.60
2019-06-07T05:28:43.156Z,1.93
2019-06-07T05:33:44.762Z,1.93
2019-06-07T05:38:46.267Z,2.10
2019-06-07T05:44:00.244Z,2.17
2019-06-07T05:48:51.154Z,2.20
2019-06-07T05:53:52.637Z,2.23
2019-06-07T05:58:54.119Z,2.43
2019-06-07T06:03:55.707Z,2.30
2019-06-07T06:09:12.897Z,2.30
2019-06-07T06:14:07.415Z,2.57
2019-06-07T06:19:04.220Z,2.20
2019-06-07T06:24:05.813Z,2.40
2019-06-07T06:29:07.380Z,2.20
2019-06-07T06:34:08.964Z,2.17
2019-06-07T06:39:10.454Z,2.30
2019-06-07T06:44:11.987Z,2.00
2019-06-07T06:49:13.750Z,2.10
2019-06-07T06:54:15.339Z,1.70
2019-06-07T07:04:20.547Z,1.70
2019-06-07T07:09:23.593Z,1.60
2019-06-07T07:14:25.078Z,1.83
2019-06-07T07:19:26.703Z,1.50
2019-06-07T07:24:29.071Z,1.50
2019-06-07T07:29:30.576Z,1.27
2019-06-07T07:34:36.616Z,1.23
2019-06-07T07:39:35.422Z,1.50
2019-06-07T07:44:37.388Z,1.70
2019-06-07T07:49:38.878Z,1.30
2019-06-07T07:54:40.462Z,1.30
2019-06-07T07:59:54.196Z,1.20
2019-06-07T08:09:51.467Z,1.17
2019-06-07T08:14:57.489Z,1.50
2019-06-07T08:19:57.617Z,1.30
2019-06-07T08:25:03.994Z,1.40
2019-06-07T08:30:46.510Z,1.90
2019-06-07T08:36:02.637Z,1.73
2019-06-07T08:40:22.434Z,1.60
2019-06-07T08:45:24.790Z,1.63
2019-06-07T08:50:27.765Z,2.27
2019-06-07T08:55:29.342Z,1.70
2019-06-07T09:00:47.697Z,1.80
2019-06-07T09:05:34.510Z,2.17
2019-06-07T09:10:36.288Z,2.17
2019-06-07T09:15:37.879Z,2.17
2019-06-07T09:20:48.156Z,2.47
2019-06-07T09:26:01.296Z,2.57
2019-06-07T09:30:53.371Z,3.20
2019-06-07T09:35:56.236Z,2.70
2019-06-07T09:41:00.438Z,2.30
2019-06-07T09:46:05.607Z,2.60
2019-06-07T09:51:13.253Z,1.70
2019-06-07T09:56:12.024Z,2.23
2019-06-07T10:01:13.707Z,2.30
2019-06-07T10:06:15.694Z,2.40
2019-06-07T10:11:17.336Z,2.27
2019-06-07T10:16:19.029Z,2.20
2019-06-07T10:21:20.614Z,2.10
2019-06-07T10:26:22.251Z,2.20
2019-06-07T10:31:23.904Z,2.40
2019-06-07T10:36:25.465Z,2.30
2019-06-07T10:41:27.504Z,2.47
2019-06-07T10:46:31.032Z,2.47
2019-06-07T10:51:32.755Z,2.10
2019-06-07T10:56:34.407Z,2.23
2019-06-07T11:01:35.988Z,2.43
2019-06-07T11:06:38.224Z,2.20
2019-06-07T11:11:39.984Z,2.40
2019-06-07T11:16:41.975Z,2.20
2019-06-07T11:21:43.575Z,2.10
2019-06-07T11:26:48.445Z,2.30
2019-06-07T11:31:50.107Z,2.17
2019-06-07T11:36:51.858Z,2.30
2019-06-07T11:41:54.475Z,2.30
2019-06-07T11:46:56.230Z,2.93
2019-06-07T11:51:57.740Z,2.30
2019-06-07T11:56:59.463Z,2.87
2019-06-07T12:02:00.886Z,2.80
2019-06-07T12:07:02.624Z,2.80
2019-06-07T12:12:04.467Z,2.70
2019-06-07T12:17:06.079Z,2.50
2019-06-07T12:22:09.768Z,2.65
2019-06-07T12:27:12.731Z,2.40
2019-06-07T12:32:15.582Z,2.75
2019-06-07T12:37:20.462Z,2.40
2019-06-07T12:42:20.896Z,2.40
2019-06-07T12:47:23.251Z,2.87
2019-06-07T12:52:24.907Z,2.58
2019-06-07T12:57:26.743Z,2.53
2019-06-07T13:02:28.414Z,2.57
2019-06-07T13:07:30.015Z,2.62
2019-06-07T13:12:31.532Z,2.10
2019-06-07T13:17:33.146Z,2.27
2019-06-07T13:22:34.939Z,2.27
2019-06-07T13:27:36.503Z,2.10
2019-06-07T13:32:38.244Z,2.22
2019-06-07T13:37:40.118Z,2.57
2019-06-07T13:42:41.601Z,2.30
2019-06-07T13:47:43.638Z,2.33
2019-06-07T13:52:46.761Z,2.20
2019-06-07T13:57:49.216Z,1.98
2019-06-07T14:02:50.695Z,1.90
2019-06-07T14:07:52.859Z,2.47
2019-06-07T14:12:54.343Z,2.20
2019-06-07T14:17:55.837Z,2.20
2019-06-07T14:22:57.326Z,2.20
2019-06-07T14:27:59.042Z,2.12
2019-06-07T14:33:00.652Z,2.30
2019-06-07T14:38:02.422Z,1.87
2019-06-07T14:43:04.427Z,1.82
2019-06-07T14:48:06.194Z,2.00
2019-06-07T14:53:07.736Z,1.90
2019-06-07T14:58:09.433Z,1.90
2019-06-07T15:03:11.532Z,1.90
2019-06-07T15:08:13.146Z,1.62
2019-06-07T15:13:14.747Z,1.87
2019-06-07T15:18:16.235Z,2.08
2019-06-07T15:23:18.012Z,1.90
2019-06-07T15:28:19.499Z,1.87
2019-06-07T15:33:21.363Z,2.00
2019-06-07T15:38:22.963Z,2.62
2019-06-07T15:43:24.894Z,2.40
2019-06-07T15:48:26.720Z,2.42
2019-06-07T15:53:28.268Z,2.50
2019-06-07T15:58:30.875Z,2.62
2019-06-07T16:03:33.767Z,2.77
2019-06-07T16:08:36.295Z,2.80
2019-06-07T16:13:38.792Z,2.83
2019-06-07T16:18:41.583Z,2.80
2019-06-07T16:23:44.085Z,2.87
2019-06-07T16:28:46.943Z,3.05
2019-06-07T16:33:48.454Z,3.00
2019-06-07T16:38:50.256Z,3.12
2019-06-07T16:43:54.509Z,5.85
2019-06-07T16:48:56.986Z,4.00
2019-06-07T16:54:00.842Z,3.10
2019-06-07T16:59:02.610Z,4.00
2019-06-07T17:04:04.803Z,4.42
2019-06-07T17:09:07.403Z,4.10
2019-06-07T17:19:10.244Z,5.90
2019-06-07T17:24:11.788Z,5.85
2019-06-07T17:29:13.366Z,6.75
2019-06-07T17:34:15.037Z,5.90
2019-06-07T17:39:16.643Z,6.30
2019-06-07T17:44:21.129Z,7.07
2019-06-07T17:59:26.880Z,8.30
2019-06-07T18:04:28.884Z,9.30
2019-06-07T18:09:31.383Z,10.13
2019-06-07T18:14:33.175Z,8.25
2019-06-07T18:19:34.772Z,8.38
2019-06-07T18:24:36.262Z,9.23
2019-06-07T18:29:37.833Z,9.23
2019-06-07T18:34:39.494Z,8.95
2019-06-07T18:39:40.985Z,9.53
2019-06-07T18:44:42.480Z,10.08
2019-06-07T18:49:43.975Z,9.80
2019-06-07T18:54:46.798Z,9.80
2019-06-07T18:59:48.573Z,9.45
2019-06-07T19:04:50.539Z,9.68
2019-06-07T19:09:52.684Z,8.93
2019-06-07T19:14:55.573Z,9.10
2019-06-07T19:19:58.305Z,8.67
2019-06-07T19:25:00.556Z,8.40
2019-06-07T19:30:04.853Z,8.65
2019-06-07T19:35:07.244Z,8.70
2019-06-07T19:40:10.438Z,11.27
2019-06-07T19:45:30.914Z,8.70
2019-06-07T19:50:17.613Z,8.93
2019-06-07T19:55:19.511Z,9.28
2019-06-07T20:00:22.314Z,9.28
2019-06-07T20:05:24.119Z,8.63
2019-06-07T20:10:26.399Z,9.00
2019-06-07T20:15:29.553Z,9.33
2019-06-07T20:20:31.357Z,9.30
2019-06-07T20:25:33.355Z,9.60
2019-06-07T20:30:34.955Z,8.48
2019-06-07T20:35:36.644Z,9.13
2019-06-07T20:40:38.233Z,9.20
2019-06-07T20:45:39.710Z,9.33
2019-06-07T20:50:41.423Z,9.25
2019-06-07T20:55:42.916Z,9.55
2019-06-07T21:00:44.511Z,9.37
2019-06-07T21:05:46.089Z,8.83
2019-06-07T21:10:47.901Z,9.10
2019-06-07T21:15:49.549Z,8.85
2019-06-07T21:20:51.073Z,8.75
2019-06-07T21:25:52.560Z,9.10
2019-06-07T21:30:54.049Z,9.23
2019-06-07T21:35:55.545Z,9.10
2019-06-07T21:40:57.143Z,9.13
2019-06-07T21:46:05.367Z,9.55
2019-06-07T21:51:02.235Z,8.43
2019-06-07T21:56:04.817Z,8.98
2019-06-07T22:01:15.108Z,9.55
2019-06-07T22:06:16.913Z,10.80
2019-06-07T22:11:18.515Z,7.90
2019-06-07T22:16:28.491Z,9.83
2019-06-07T22:21:23.476Z,18.70
2019-06-07T22:26:24.984Z,10.13
2019-06-07T22:31:26.597Z,10.53
2019-06-07T22:36:28.305Z,10.57
2019-06-07T22:41:30.209Z,10.70
2019-06-07T22:46:37.540Z,11.37
2019-06-07T22:51:35.259Z,10.43
2019-06-07T22:56:41.489Z,11.20
2019-06-07T23:01:42.984Z,11.23
2019-06-07T23:06:44.481Z,11.30
2019-06-07T23:11:46.388Z,11.13
2019-06-07T23:16:55.266Z,11.77
2019-06-07T23:21:51.486Z,12.00
2019-06-07T23:26:52.961Z,11.00
2019-06-07T23:31:54.455Z,11.57
2019-06-07T23:36:56.059Z,11.67
2019-06-07T23:41:57.620Z,11.87
2019-06-07T23:47:10.867Z,12.20
2019-06-07T23:52:03.017Z,12.57
2019-06-07T23:57:05.116Z,12.77
